sensor_id;sensor_type;location;lat;lon;timestamp;P1;durP1;ratioP1;P2;durP2;ratioP2
60494;SDS011;46342;49.046;11.920;2024-01-07T00:00:00;6.10;;;3.92;;
60494;SDS011;46342;49.046;11.920;2024-01-07T00:02:25;5.63;;;3.53;;
60494;SDS011;46342;49.046;11.920;2024-01-07T00:04:51;6.88;;;3.88;;
60494;SDS011;46342;49.046;11.920;2024-01-07T00:07:16;7.65;;;3.38;;
60494;SDS011;46342;49.046;11.920;2024-01-07T00:09:42;6.35;;;4.15;;
60494;SDS011;46342;49.046;11.920;2024-01-07T00:12:07;6.53;;;4.20;;
60494;SDS011;46342;49.046;11.920;2024-01-07T00:14:33;7.07;;;4.20;;
60494;SDS011;46342;49.046;11.920;2024-01-07T00:16:59;7.57;;;3.80;;
60494;SDS011;46342;49.046;11.920;2024-01-07T00:19:24;7.63;;;4.00;;
60494;SDS011;46342;49.046;11.920;2024-01-07T00:21:50;6.90;;;4.18;;
60494;SDS011;46342;49.046;11.920;2024-01-07T00:24:15;5.72;;;3.83;;
60494;SDS011;46342;49.046;11.920;2024-01-07T00:26:41;8.27;;;4.07;;
60494;SDS011;46342;49.046;11.920;2024-01-07T00:29:07;7.40;;;4.22;;
60494;SDS011;46342;49.046;11.920;2024-01-07T00:31:32;6.60;;;4.40;;
60494;SDS011;46342;49.046;11.920;2024-01-07T00:33:58;7.20;;;4.40;;
60494;SDS011;46342;49.046;11.920;2024-01-07T00:36:24;6.88;;;4.22;;
60494;SDS011;46342;49.046;11.920;2024-01-07T00:38:49;5.80;;;3.92;;
60494;SDS011;46342;49.046;11.920;2024-01-07T00:41:15;7.45;;;4.22;;
60494;SDS011;46342;49.046;11.920;2024-01-07T00:43:40;9.38;;;4.97;;
60494;SDS011;46342;49.046;11.920;2024-01-07T00:46:06;8.82;;;4.40;;
60494;SDS011;46342;49.046;11.920;2024-01-07T00:48:32;6.72;;;3.90;;
60494;SDS011;46342;49.046;11.920;2024-01-07T00:50:58;8.52;;;4.50;;
60494;SDS011;46342;49.046;11.920;2024-01-07T00:53:23;7.55;;;4.82;;
60494;SDS011;46342;49.046;11.920;2024-01-07T00:55:49;8.95;;;4.88;;
60494;SDS011;46342;49.046;11.920;2024-01-07T00:58:14;7.20;;;4.13;;
60494;SDS011;46342;49.046;11.920;2024-01-07T01:00:40;7.93;;;4.30;;
60494;SDS011;46342;49.046;11.920;2024-01-07T01:03:05;7.82;;;4.13;;
60494;SDS011;46342;49.046;11.920;2024-01-07T01:05:31;8.15;;;4.32;;
60494;SDS011;46342;49.046;11.920;2024-01-07T01:07:56;6.15;;;4.43;;
60494;SDS011;46342;49.046;11.920;2024-01-07T01:10:22;7.30;;;4.10;;
60494;SDS011;46342;49.046;11.920;2024-01-07T01:12:48;6.40;;;3.83;;
60494;SDS011;46342;49.046;11.920;2024-01-07T01:15:13;8.50;;;5.05;;
60494;SDS011;46342;49.046;11.920;2024-01-07T01:17:41;7.38;;;4.68;;
60494;SDS011;46342;49.046;11.920;2024-01-07T01:20:07;6.57;;;4.30;;
60494;SDS011;46342;49.046;11.920;2024-01-07T01:22:33;7.65;;;4.32;;
60494;SDS011;46342;49.046;11.920;2024-01-07T01:24:59;9.50;;;4.28;;
60494;SDS011;46342;49.046;11.920;2024-01-07T01:27:24;6.03;;;4.07;;
60494;SDS011;46342;49.046;11.920;2024-01-07T01:29:50;7.28;;;4.05;;
60494;SDS011;46342;49.046;11.920;2024-01-07T01:32:16;10.10;;;4.15;;
60494;SDS011;46342;49.046;11.920;2024-01-07T01:34:41;7.07;;;4.55;;
60494;SDS011;46342;49.046;11.920;2024-01-07T01:37:08;7.13;;;4.65;;
60494;SDS011;46342;49.046;11.920;2024-01-07T01:39:34;7.38;;;4.22;;
60494;SDS011;46342;49.046;11.920;2024-01-07T01:41:59;6.97;;;4.50;;
60494;SDS011;46342;49.046;11.920;2024-01-07T01:44:25;5.57;;;3.97;;
60494;SDS011;46342;49.046;11.920;2024-01-07T01:46:53;7.35;;;4.38;;
60494;SDS011;46342;49.046;11.920;2024-01-07T01:49:19;7.70;;;4.47;;
60494;SDS011;46342;49.046;11.920;2024-01-07T01:51:45;8.30;;;4.57;;
60494;SDS011;46342;49.046;11.920;2024-01-07T01:54:12;6.68;;;4.53;;
60494;SDS011;46342;49.046;11.920;2024-01-07T01:56:37;9.13;;;4.55;;
60494;SDS011;46342;49.046;11.920;2024-01-07T01:59:04;10.45;;;4.95;;
60494;SDS011;46342;49.046;11.920;2024-01-07T02:01:29;7.82;;;4.53;;
60494;SDS011;46342;49.046;11.920;2024-01-07T02:03:56;7.95;;;4.40;;
60494;SDS011;46342;49.046;11.920;2024-01-07T02:06:22;7.25;;;4.93;;
60494;SDS011;46342;49.046;11.920;2024-01-07T02:08:48;6.93;;;4.32;;
60494;SDS011;46342;49.046;11.920;2024-01-07T02:11:15;7.57;;;4.75;;
60494;SDS011;46342;49.046;11.920;2024-01-07T02:13:42;7.68;;;4.78;;
60494;SDS011;46342;49.046;11.920;2024-01-07T02:16:07;8.43;;;4.60;;
60494;SDS011;46342;49.046;11.920;2024-01-07T02:18:33;7.70;;;4.55;;
60494;SDS011;46342;49.046;11.920;2024-01-07T02:20:59;8.18;;;5.05;;
60494;SDS011;46342;49.046;11.920;2024-01-07T02:23:24;9.45;;;4.90;;
60494;SDS011;46342;49.046;11.920;2024-01-07T02:25:50;8.13;;;5.00;;
60494;SDS011;46342;49.046;11.920;2024-01-07T02:28:16;9.13;;;4.97;;
60494;SDS011;46342;49.046;11.920;2024-01-07T02:30:41;9.32;;;5.43;;
60494;SDS011;46342;49.046;11.920;2024-01-07T02:33:07;10.60;;;6.13;;
60494;SDS011;46342;49.046;11.920;2024-01-07T02:35:33;11.20;;;5.20;;
60494;SDS011;46342;49.046;11.920;2024-01-07T02:37:59;8.68;;;5.53;;
60494;SDS011;46342;49.046;11.920;2024-01-07T02:40:24;10.68;;;5.22;;
60494;SDS011;46342;49.046;11.920;2024-01-07T02:42:50;11.63;;;5.75;;
60494;SDS011;46342;49.046;11.920;2024-01-07T02:45:15;9.50;;;5.15;;
60494;SDS011;46342;49.046;11.920;2024-01-07T02:47:41;9.27;;;5.57;;
60494;SDS011;46342;49.046;11.920;2024-01-07T02:50:06;12.45;;;6.15;;
60494;SDS011;46342;49.046;11.920;2024-01-07T02:52:32;8.65;;;4.95;;
60494;SDS011;46342;49.046;11.920;2024-01-07T02:54:58;9.43;;;5.03;;
60494;SDS011;46342;49.046;11.920;2024-01-07T02:57:26;10.50;;;5.22;;
60494;SDS011;46342;49.046;11.920;2024-01-07T02:59:52;11.05;;;5.68;;
60494;SDS011;46342;49.046;11.920;2024-01-07T03:02:17;9.40;;;5.35;;
60494;SDS011;46342;49.046;11.920;2024-01-07T03:04:43;9.32;;;5.38;;
60494;SDS011;46342;49.046;11.920;2024-01-07T03:07:08;8.77;;;4.82;;
60494;SDS011;46342;49.046;11.920;2024-01-07T03:09:34;10.73;;;5.88;;
60494;SDS011;46342;49.046;11.920;2024-01-07T03:11:59;15.15;;;6.20;;
60494;SDS011;46342;49.046;11.920;2024-01-07T03:14:25;8.73;;;5.78;;
60494;SDS011;46342;49.046;11.920;2024-01-07T03:16:51;10.77;;;5.97;;
60494;SDS011;46342;49.046;11.920;2024-01-07T03:19:17;9.88;;;5.30;;
60494;SDS011;46342;49.046;11.920;2024-01-07T03:21:43;10.68;;;5.20;;
60494;SDS011;46342;49.046;11.920;2024-01-07T03:24:08;12.27;;;6.43;;
60494;SDS011;46342;49.046;11.920;2024-01-07T03:26:35;9.07;;;6.30;;
60494;SDS011;46342;49.046;11.920;2024-01-07T03:29:01;11.25;;;6.35;;
60494;SDS011;46342;49.046;11.920;2024-01-07T03:31:27;11.85;;;6.53;;
60494;SDS011;46342;49.046;11.920;2024-01-07T03:33:53;11.68;;;6.55;;
60494;SDS011;46342;49.046;11.920;2024-01-07T03:36:19;12.05;;;6.47;;
60494;SDS011;46342;49.046;11.920;2024-01-07T03:38:45;11.35;;;6.63;;
60494;SDS011;46342;49.046;11.920;2024-01-07T03:41:17;15.68;;;6.97;;
60494;SDS011;46342;49.046;11.920;2024-01-07T03:43:43;13.55;;;6.63;;
60494;SDS011;46342;49.046;11.920;2024-01-07T03:46:10;12.55;;;6.10;;
60494;SDS011;46342;49.046;11.920;2024-01-07T03:48:35;12.00;;;6.32;;
60494;SDS011;46342;49.046;11.920;2024-01-07T03:51:01;14.15;;;6.53;;
60494;SDS011;46342;49.046;11.920;2024-01-07T03:53:26;18.33;;;8.18;;
60494;SDS011;46342;49.046;11.920;2024-01-07T03:55:52;14.52;;;7.13;;
60494;SDS011;46342;49.046;11.920;2024-01-07T03:58:17;9.13;;;5.50;;
60494;SDS011;46342;49.046;11.920;2024-01-07T04:00:43;12.93;;;6.53;;
60494;SDS011;46342;49.046;11.920;2024-01-07T04:03:08;12.73;;;7.47;;
60494;SDS011;46342;49.046;11.920;2024-01-07T04:05:34;10.77;;;6.00;;
60494;SDS011;46342;49.046;11.920;2024-01-07T04:08:01;10.27;;;6.18;;
60494;SDS011;46342;49.046;11.920;2024-01-07T04:10:27;11.73;;;6.72;;
60494;SDS011;46342;49.046;11.920;2024-01-07T04:12:53;12.77;;;6.93;;
60494;SDS011;46342;49.046;11.920;2024-01-07T04:15:20;10.77;;;5.43;;
60494;SDS011;46342;49.046;11.920;2024-01-07T04:17:45;12.30;;;6.65;;
60494;SDS011;46342;49.046;11.920;2024-01-07T04:20:14;14.98;;;6.90;;
60494;SDS011;46342;49.046;11.920;2024-01-07T04:22:39;11.65;;;6.60;;
60494;SDS011;46342;49.046;11.920;2024-01-07T04:25:05;13.70;;;6.80;;
60494;SDS011;46342;49.046;11.920;2024-01-07T04:27:35;13.40;;;6.38;;
60494;SDS011;46342;49.046;11.920;2024-01-07T04:30:01;13.18;;;6.03;;
60494;SDS011;46342;49.046;11.920;2024-01-07T04:32:27;10.57;;;5.80;;
60494;SDS011;46342;49.046;11.920;2024-01-07T04:34:53;13.02;;;6.55;;
60494;SDS011;46342;49.046;11.920;2024-01-07T04:37:18;12.38;;;6.65;;
60494;SDS011;46342;49.046;11.920;2024-01-07T04:39:44;12.70;;;6.03;;
60494;SDS011;46342;49.046;11.920;2024-01-07T04:42:09;16.27;;;6.22;;
60494;SDS011;46342;49.046;11.920;2024-01-07T04:44:35;12.68;;;6.30;;
60494;SDS011;46342;49.046;11.920;2024-01-07T04:47:00;13.77;;;5.65;;
60494;SDS011;46342;49.046;11.920;2024-01-07T04:49:26;11.50;;;6.40;;
60494;SDS011;46342;49.046;11.920;2024-01-07T04:51:51;8.90;;;4.93;;
60494;SDS011;46342;49.046;11.920;2024-01-07T04:54:17;12.70;;;6.13;;
60494;SDS011;46342;49.046;11.920;2024-01-07T04:56:43;13.02;;;5.95;;
60494;SDS011;46342;49.046;11.920;2024-01-07T04:59:09;12.43;;;5.43;;
60494;SDS011;46342;49.046;11.920;2024-01-07T05:01:35;11.85;;;5.85;;
60494;SDS011;46342;49.046;11.920;2024-01-07T05:04:01;13.07;;;6.15;;
60494;SDS011;46342;49.046;11.920;2024-01-07T05:06:27;11.10;;;6.03;;
60494;SDS011;46342;49.046;11.920;2024-01-07T05:08:53;12.90;;;6.65;;
60494;SDS011;46342;49.046;11.920;2024-01-07T05:11:18;11.80;;;6.13;;
60494;SDS011;46342;49.046;11.920;2024-01-07T05:13:44;16.80;;;6.25;;
60494;SDS011;46342;49.046;11.920;2024-01-07T05:16:17;14.43;;;7.28;;
60494;SDS011;46342;49.046;11.920;2024-01-07T05:18:46;12.50;;;5.72;;
60494;SDS011;46342;49.046;11.920;2024-01-07T05:21:14;12.43;;;5.97;;
60494;SDS011;46342;49.046;11.920;2024-01-07T05:23:41;18.90;;;6.35;;
60494;SDS011;46342;49.046;11.920;2024-01-07T05:26:06;9.65;;;5.38;;
60494;SDS011;46342;49.046;11.920;2024-01-07T05:28:32;12.70;;;6.07;;
60494;SDS011;46342;49.046;11.920;2024-01-07T05:30:58;13.85;;;6.00;;
60494;SDS011;46342;49.046;11.920;2024-01-07T05:33:23;12.48;;;6.38;;
60494;SDS011;46342;49.046;11.920;2024-01-07T05:35:49;13.10;;;5.93;;
60494;SDS011;46342;49.046;11.920;2024-01-07T05:38:14;13.82;;;6.05;;
60494;SDS011;46342;49.046;11.920;2024-01-07T05:40:40;15.98;;;6.28;;
60494;SDS011;46342;49.046;11.920;2024-01-07T05:43:05;10.90;;;5.88;;
60494;SDS011;46342;49.046;11.920;2024-01-07T05:45:31;12.75;;;6.57;;
60494;SDS011;46342;49.046;11.920;2024-01-07T05:47:56;14.90;;;6.82;;
60494;SDS011;46342;49.046;11.920;2024-01-07T05:50:22;12.80;;;6.07;;
60494;SDS011;46342;49.046;11.920;2024-01-07T05:52:47;14.10;;;6.55;;
60494;SDS011;46342;49.046;11.920;2024-01-07T05:55:13;10.32;;;5.35;;
60494;SDS011;46342;49.046;11.920;2024-01-07T05:57:39;15.15;;;6.75;;
60494;SDS011;46342;49.046;11.920;2024-01-07T06:00:04;15.38;;;7.00;;
60494;SDS011;46342;49.046;11.920;2024-01-07T06:02:30;14.65;;;6.50;;
60494;SDS011;46342;49.046;11.920;2024-01-07T06:04:56;15.32;;;7.55;;
60494;SDS011;46342;49.046;11.920;2024-01-07T06:07:22;11.90;;;6.32;;
60494;SDS011;46342;49.046;11.920;2024-01-07T06:09:47;13.85;;;6.50;;
60494;SDS011;46342;49.046;11.920;2024-01-07T06:12:13;12.20;;;6.22;;
60494;SDS011;46342;49.046;11.920;2024-01-07T06:14:39;13.00;;;6.05;;
60494;SDS011;46342;49.046;11.920;2024-01-07T06:17:04;13.57;;;6.00;;
60494;SDS011;46342;49.046;11.920;2024-01-07T06:19:30;14.45;;;6.25;;
60494;SDS011;46342;49.046;11.920;2024-01-07T06:21:56;10.95;;;6.03;;
60494;SDS011;46342;49.046;11.920;2024-01-07T06:24:21;12.25;;;6.38;;
60494;SDS011;46342;49.046;11.920;2024-01-07T06:26:47;13.43;;;6.65;;
60494;SDS011;46342;49.046;11.920;2024-01-07T06:29:12;11.27;;;5.85;;
60494;SDS011;46342;49.046;11.920;2024-01-07T06:31:44;11.27;;;5.82;;
60494;SDS011;46342;49.046;11.920;2024-01-07T06:34:10;14.40;;;5.95;;
60494;SDS011;46342;49.046;11.920;2024-01-07T06:39:04;11.75;;;6.13;;
60494;SDS011;46342;49.046;11.920;2024-01-07T06:41:30;11.30;;;5.60;;
60494;SDS011;46342;49.046;11.920;2024-01-07T06:43:55;14.00;;;6.63;;
60494;SDS011;46342;49.046;11.920;2024-01-07T06:46:22;13.07;;;5.97;;
60494;SDS011;46342;49.046;11.920;2024-01-07T06:48:47;11.65;;;6.72;;
60494;SDS011;46342;49.046;11.920;2024-01-07T06:51:13;12.20;;;5.68;;
60494;SDS011;46342;49.046;11.920;2024-01-07T06:53:40;10.18;;;5.45;;
60494;SDS011;46342;49.046;11.920;2024-01-07T06:56:05;10.30;;;5.25;;
60494;SDS011;46342;49.046;11.920;2024-01-07T06:58:31;10.88;;;5.38;;
60494;SDS011;46342;49.046;11.920;2024-01-07T07:00:57;11.88;;;5.93;;
60494;SDS011;46342;49.046;11.920;2024-01-07T07:03:23;12.23;;;6.43;;
60494;SDS011;46342;49.046;11.920;2024-01-07T07:05:48;11.30;;;5.68;;
60494;SDS011;46342;49.046;11.920;2024-01-07T07:08:14;12.25;;;6.43;;
60494;SDS011;46342;49.046;11.920;2024-01-07T07:10:40;10.90;;;5.47;;
60494;SDS011;46342;49.046;11.920;2024-01-07T07:13:05;13.13;;;6.30;;
60494;SDS011;46342;49.046;11.920;2024-01-07T07:15:31;13.95;;;6.72;;
60494;SDS011;46342;49.046;11.920;2024-01-07T07:17:56;13.18;;;6.45;;
60494;SDS011;46342;49.046;11.920;2024-01-07T07:20:22;14.77;;;6.10;;
60494;SDS011;46342;49.046;11.920;2024-01-07T07:22:48;17.33;;;7.25;;
60494;SDS011;46342;49.046;11.920;2024-01-07T07:25:13;12.00;;;6.22;;
60494;SDS011;46342;49.046;11.920;2024-01-07T07:27:39;12.27;;;5.78;;
60494;SDS011;46342;49.046;11.920;2024-01-07T07:30:05;13.93;;;6.60;;
60494;SDS011;46342;49.046;11.920;2024-01-07T07:32:31;12.43;;;6.05;;
60494;SDS011;46342;49.046;11.920;2024-01-07T07:34:57;12.07;;;6.38;;
60494;SDS011;46342;49.046;11.920;2024-01-07T07:37:22;13.70;;;7.13;;
60494;SDS011;46342;49.046;11.920;2024-01-07T07:39:48;11.32;;;5.55;;
60494;SDS011;46342;49.046;11.920;2024-01-07T07:42:14;13.65;;;5.85;;
60494;SDS011;46342;49.046;11.920;2024-01-07T07:44:41;10.13;;;5.55;;
60494;SDS011;46342;49.046;11.920;2024-01-07T07:47:06;12.52;;;5.82;;
60494;SDS011;46342;49.046;11.920;2024-01-07T07:49:33;11.75;;;5.22;;
60494;SDS011;46342;49.046;11.920;2024-01-07T07:51:59;16.15;;;6.65;;
60494;SDS011;46342;49.046;11.920;2024-01-07T07:54:24;9.98;;;5.70;;
60494;SDS011;46342;49.046;11.920;2024-01-07T07:56:50;12.77;;;5.40;;
60494;SDS011;46342;49.046;11.920;2024-01-07T07:59:15;10.90;;;5.07;;
60494;SDS011;46342;49.046;11.920;2024-01-07T08:01:41;12.85;;;5.35;;
60494;SDS011;46342;49.046;11.920;2024-01-07T08:04:07;9.35;;;4.22;;
60494;SDS011;46342;49.046;11.920;2024-01-07T08:06:34;9.82;;;4.90;;
60494;SDS011;46342;49.046;11.920;2024-01-07T08:09:00;9.15;;;4.70;;
60494;SDS011;46342;49.046;11.920;2024-01-07T08:11:25;12.35;;;5.05;;
60494;SDS011;46342;49.046;11.920;2024-01-07T08:13:51;13.38;;;5.60;;
60494;SDS011;46342;49.046;11.920;2024-01-07T08:16:16;8.80;;;4.85;;
60494;SDS011;46342;49.046;11.920;2024-01-07T08:18:43;9.43;;;5.13;;
60494;SDS011;46342;49.046;11.920;2024-01-07T08:21:09;12.05;;;5.63;;
60494;SDS011;46342;49.046;11.920;2024-01-07T08:23:35;11.10;;;4.55;;
60494;SDS011;46342;49.046;11.920;2024-01-07T08:26:00;9.55;;;4.95;;
60494;SDS011;46342;49.046;11.920;2024-01-07T08:28:27;8.60;;;4.38;;
60494;SDS011;46342;49.046;11.920;2024-01-07T08:30:53;9.20;;;4.55;;
60494;SDS011;46342;49.046;11.920;2024-01-07T08:33:18;11.60;;;5.78;;
60494;SDS011;46342;49.046;11.920;2024-01-07T08:35:44;9.98;;;5.32;;
60494;SDS011;46342;49.046;11.920;2024-01-07T08:38:10;9.98;;;4.60;;
60494;SDS011;46342;49.046;11.920;2024-01-07T08:40:36;10.05;;;5.18;;
60494;SDS011;46342;49.046;11.920;2024-01-07T08:43:01;10.15;;;4.70;;
60494;SDS011;46342;49.046;11.920;2024-01-07T08:45:27;8.55;;;4.28;;
60494;SDS011;46342;49.046;11.920;2024-01-07T08:47:53;8.65;;;4.97;;
60494;SDS011;46342;49.046;11.920;2024-01-07T08:50:18;10.07;;;4.90;;
60494;SDS011;46342;49.046;11.920;2024-01-07T08:52:44;11.73;;;5.40;;
60494;SDS011;46342;49.046;11.920;2024-01-07T08:55:11;11.30;;;4.63;;
60494;SDS011;46342;49.046;11.920;2024-01-07T08:57:37;8.45;;;4.38;;
60494;SDS011;46342;49.046;11.920;2024-01-07T09:00:03;7.20;;;4.38;;
60494;SDS011;46342;49.046;11.920;2024-01-07T09:02:30;14.00;;;5.88;;
60494;SDS011;46342;49.046;11.920;2024-01-07T09:04:55;9.70;;;4.60;;
60494;SDS011;46342;49.046;11.920;2024-01-07T09:07:22;11.35;;;4.72;;
60494;SDS011;46342;49.046;11.920;2024-01-07T09:09:48;11.25;;;4.65;;
60494;SDS011;46342;49.046;11.920;2024-01-07T09:12:14;8.27;;;4.25;;
60494;SDS011;46342;49.046;11.920;2024-01-07T09:14:39;7.97;;;4.45;;
60494;SDS011;46342;49.046;11.920;2024-01-07T09:17:05;8.93;;;4.45;;
60494;SDS011;46342;49.046;11.920;2024-01-07T09:19:30;8.77;;;4.13;;
60494;SDS011;46342;49.046;11.920;2024-01-07T09:21:56;10.02;;;5.32;;
60494;SDS011;46342;49.046;11.920;2024-01-07T09:24:21;10.00;;;4.35;;
60494;SDS011;46342;49.046;11.920;2024-01-07T09:26:47;10.30;;;5.18;;
60494;SDS011;46342;49.046;11.920;2024-01-07T09:29:13;9.32;;;4.88;;
60494;SDS011;46342;49.046;11.920;2024-01-07T09:31:39;11.63;;;5.75;;
60494;SDS011;46342;49.046;11.920;2024-01-07T09:34:05;10.30;;;4.82;;
60494;SDS011;46342;49.046;11.920;2024-01-07T09:36:31;11.43;;;5.45;;
60494;SDS011;46342;49.046;11.920;2024-01-07T09:38:57;10.35;;;5.55;;
60494;SDS011;46342;49.046;11.920;2024-01-07T09:41:23;10.10;;;5.35;;
60494;SDS011;46342;49.046;11.920;2024-01-07T09:43:49;12.45;;;5.80;;
60494;SDS011;46342;49.046;11.920;2024-01-07T09:46:17;11.00;;;5.20;;
60494;SDS011;46342;49.046;11.920;2024-01-07T09:48:42;12.75;;;6.82;;
60494;SDS011;46342;49.046;11.920;2024-01-07T09:51:09;13.68;;;6.50;;
60494;SDS011;46342;49.046;11.920;2024-01-07T09:53:36;14.60;;;6.93;;
60494;SDS011;46342;49.046;11.920;2024-01-07T09:58:30;10.10;;;5.78;;
60494;SDS011;46342;49.046;11.920;2024-01-07T10:00:56;14.98;;;7.25;;
60494;SDS011;46342;49.046;11.920;2024-01-07T10:03:22;11.80;;;6.22;;
60494;SDS011;46342;49.046;11.920;2024-01-07T10:05:47;14.18;;;7.22;;
60494;SDS011;46342;49.046;11.920;2024-01-07T10:08:13;15.45;;;6.85;;
60494;SDS011;46342;49.046;11.920;2024-01-07T10:10:38;14.85;;;6.53;;
60494;SDS011;46342;49.046;11.920;2024-01-07T10:13:05;18.17;;;7.10;;
60494;SDS011;46342;49.046;11.920;2024-01-07T10:15:33;11.38;;;5.60;;
60494;SDS011;46342;49.046;11.920;2024-01-07T10:18:05;12.82;;;7.10;;
60494;SDS011;46342;49.046;11.920;2024-01-07T10:20:32;14.50;;;7.57;;
60494;SDS011;46342;49.046;11.920;2024-01-07T10:22:59;16.42;;;8.20;;
60494;SDS011;46342;49.046;11.920;2024-01-07T10:25:31;13.38;;;6.25;;
60494;SDS011;46342;49.046;11.920;2024-01-07T10:28:00;11.73;;;5.97;;
60494;SDS011;46342;49.046;11.920;2024-01-07T10:30:26;14.45;;;7.25;;
60494;SDS011;46342;49.046;11.920;2024-01-07T10:32:58;15.52;;;8.07;;
60494;SDS011;46342;49.046;11.920;2024-01-07T10:35:27;15.52;;;6.65;;
60494;SDS011;46342;49.046;11.920;2024-01-07T10:37:58;13.88;;;6.93;;
60494;SDS011;46342;49.046;11.920;2024-01-07T10:40:26;14.13;;;7.00;;
60494;SDS011;46342;49.046;11.920;2024-01-07T10:42:52;11.20;;;6.38;;
60494;SDS011;46342;49.046;11.920;2024-01-07T10:45:20;14.27;;;7.07;;
60494;SDS011;46342;49.046;11.920;2024-01-07T10:47:48;13.63;;;7.45;;
60494;SDS011;46342;49.046;11.920;2024-01-07T10:50:15;14.70;;;7.32;;
60494;SDS011;46342;49.046;11.920;2024-01-07T10:52:42;17.67;;;8.07;;
60494;SDS011;46342;49.046;11.920;2024-01-07T10:55:08;15.05;;;7.22;;
60494;SDS011;46342;49.046;11.920;2024-01-07T11:00:08;14.48;;;6.53;;
60494;SDS011;46342;49.046;11.920;2024-01-07T11:02:51;14.02;;;8.10;;
60494;SDS011;46342;49.046;11.920;2024-01-07T11:05:20;16.20;;;8.18;;
60494;SDS011;46342;49.046;11.920;2024-01-07T11:08:01;17.83;;;7.40;;
60494;SDS011;46342;49.046;11.920;2024-01-07T11:10:34;16.15;;;7.03;;
60494;SDS011;46342;49.046;11.920;2024-01-07T11:13:05;16.77;;;7.40;;
60494;SDS011;46342;49.046;11.920;2024-01-07T11:18:26;13.50;;;6.95;;
60494;SDS011;46342;49.046;11.920;2024-01-07T11:20:58;16.05;;;8.10;;
60494;SDS011;46342;49.046;11.920;2024-01-07T11:26:49;14.02;;;7.03;;
60494;SDS011;46342;49.046;11.920;2024-01-07T11:29:18;12.90;;;6.75;;
60494;SDS011;46342;49.046;11.920;2024-01-07T11:31:44;14.23;;;7.35;;
60494;SDS011;46342;49.046;11.920;2024-01-07T11:37:11;14.65;;;7.35;;
60494;SDS011;46342;49.046;11.920;2024-01-07T11:39:38;15.50;;;7.43;;
60494;SDS011;46342;49.046;11.920;2024-01-07T11:42:07;14.50;;;7.55;;
60494;SDS011;46342;49.046;11.920;2024-01-07T11:44:33;13.90;;;7.28;;
60494;SDS011;46342;49.046;11.920;2024-01-07T11:47:00;12.68;;;7.75;;
60494;SDS011;46342;49.046;11.920;2024-01-07T11:49:26;16.05;;;6.68;;
60494;SDS011;46342;49.046;11.920;2024-01-07T11:51:51;15.23;;;7.25;;
60494;SDS011;46342;49.046;11.920;2024-01-07T11:54:17;15.48;;;7.88;;
60494;SDS011;46342;49.046;11.920;2024-01-07T11:56:43;19.02;;;7.90;;
60494;SDS011;46342;49.046;11.920;2024-01-07T11:59:09;15.45;;;7.13;;
60494;SDS011;46342;49.046;11.920;2024-01-07T12:01:34;20.48;;;9.18;;
60494;SDS011;46342;49.046;11.920;2024-01-07T12:04:00;13.52;;;7.75;;
60494;SDS011;46342;49.046;11.920;2024-01-07T12:06:25;16.30;;;7.28;;
60494;SDS011;46342;49.046;11.920;2024-01-07T12:08:51;17.00;;;7.40;;
60494;SDS011;46342;49.046;11.920;2024-01-07T12:11:17;17.70;;;7.47;;
60494;SDS011;46342;49.046;11.920;2024-01-07T12:13:44;13.77;;;8.23;;
60494;SDS011;46342;49.046;11.920;2024-01-07T12:16:10;12.68;;;6.85;;
60494;SDS011;46342;49.046;11.920;2024-01-07T12:18:36;21.40;;;9.00;;
60494;SDS011;46342;49.046;11.920;2024-01-07T12:21:03;14.38;;;7.22;;
60494;SDS011;46342;49.046;11.920;2024-01-07T12:23:28;17.23;;;9.38;;
60494;SDS011;46342;49.046;11.920;2024-01-07T12:25:59;13.95;;;6.90;;
60494;SDS011;46342;49.046;11.920;2024-01-07T12:28:33;12.30;;;6.93;;
60494;SDS011;46342;49.046;11.920;2024-01-07T12:30:58;16.90;;;7.82;;
60494;SDS011;46342;49.046;11.920;2024-01-07T12:33:26;15.73;;;7.75;;
60494;SDS011;46342;49.046;11.920;2024-01-07T12:35:53;16.10;;;8.30;;
60494;SDS011;46342;49.046;11.920;2024-01-07T12:38:26;15.75;;;8.93;;
60494;SDS011;46342;49.046;11.920;2024-01-07T12:40:55;16.95;;;8.32;;
60494;SDS011;46342;49.046;11.920;2024-01-07T12:43:21;20.23;;;7.55;;
60494;SDS011;46342;49.046;11.920;2024-01-07T12:45:50;14.85;;;7.65;;
60494;SDS011;46342;49.046;11.920;2024-01-07T12:48:16;16.17;;;6.95;;
60494;SDS011;46342;49.046;11.920;2024-01-07T12:50:41;16.67;;;7.20;;
60494;SDS011;46342;49.046;11.920;2024-01-07T12:53:07;14.95;;;8.25;;
60494;SDS011;46342;49.046;11.920;2024-01-07T12:55:33;16.52;;;7.45;;
60494;SDS011;46342;49.046;11.920;2024-01-07T12:57:58;18.45;;;8.75;;
60494;SDS011;46342;49.046;11.920;2024-01-07T13:00:24;13.50;;;7.53;;
60494;SDS011;46342;49.046;11.920;2024-01-07T13:02:51;16.80;;;7.60;;
60494;SDS011;46342;49.046;11.920;2024-01-07T13:05:17;19.80;;;8.05;;
60494;SDS011;46342;49.046;11.920;2024-01-07T13:07:43;15.80;;;7.97;;
60494;SDS011;46342;49.046;11.920;2024-01-07T13:10:09;16.38;;;7.05;;
60494;SDS011;46342;49.046;11.920;2024-01-07T13:12:35;15.23;;;8.20;;
60494;SDS011;46342;49.046;11.920;2024-01-07T13:15:01;15.30;;;7.80;;
60494;SDS011;46342;49.046;11.920;2024-01-07T13:17:28;16.20;;;8.20;;
60494;SDS011;46342;49.046;11.920;2024-01-07T13:19:55;14.63;;;7.55;;
60494;SDS011;46342;49.046;11.920;2024-01-07T13:22:20;15.35;;;7.18;;
60494;SDS011;46342;49.046;11.920;2024-01-07T13:24:46;15.13;;;7.75;;
60494;SDS011;46342;49.046;11.920;2024-01-07T13:27:11;20.52;;;8.90;;
60494;SDS011;46342;49.046;11.920;2024-01-07T13:29:38;16.88;;;8.13;;
60494;SDS011;46342;49.046;11.920;2024-01-07T13:32:03;17.13;;;7.90;;
60494;SDS011;46342;49.046;11.920;2024-01-07T13:34:29;17.45;;;8.13;;
60494;SDS011;46342;49.046;11.920;2024-01-07T13:36:55;16.98;;;7.85;;
60494;SDS011;46342;49.046;11.920;2024-01-07T13:39:21;16.48;;;8.23;;
60494;SDS011;46342;49.046;11.920;2024-01-07T13:41:46;16.30;;;7.80;;
60494;SDS011;46342;49.046;11.920;2024-01-07T13:44:13;14.85;;;7.63;;
60494;SDS011;46342;49.046;11.920;2024-01-07T13:46:45;14.98;;;6.50;;
60494;SDS011;46342;49.046;11.920;2024-01-07T13:49:12;19.15;;;8.45;;
60494;SDS011;46342;49.046;11.920;2024-01-07T13:51:38;15.05;;;8.02;;
60494;SDS011;46342;49.046;11.920;2024-01-07T13:54:04;21.17;;;9.90;;
60494;SDS011;46342;49.046;11.920;2024-01-07T13:56:31;18.65;;;8.50;;
60494;SDS011;46342;49.046;11.920;2024-01-07T13:58:56;15.68;;;7.50;;
60494;SDS011;46342;49.046;11.920;2024-01-07T14:01:22;16.33;;;7.93;;
60494;SDS011;46342;49.046;11.920;2024-01-07T14:03:47;19.92;;;8.13;;
60494;SDS011;46342;49.046;11.920;2024-01-07T14:06:13;16.20;;;7.50;;
60494;SDS011;46342;49.046;11.920;2024-01-07T14:08:40;18.05;;;7.53;;
60494;SDS011;46342;49.046;11.920;2024-01-07T14:11:05;13.70;;;6.90;;
60494;SDS011;46342;49.046;11.920;2024-01-07T14:13:32;17.05;;;7.07;;
60494;SDS011;46342;49.046;11.920;2024-01-07T14:15:58;15.30;;;8.05;;
60494;SDS011;46342;49.046;11.920;2024-01-07T14:18:24;21.15;;;8.60;;
60494;SDS011;46342;49.046;11.920;2024-01-07T14:20:50;16.65;;;8.20;;
60494;SDS011;46342;49.046;11.920;2024-01-07T14:23:15;13.95;;;7.55;;
60494;SDS011;46342;49.046;11.920;2024-01-07T14:25:41;12.48;;;6.82;;
60494;SDS011;46342;49.046;11.920;2024-01-07T14:28:07;15.00;;;7.68;;
60494;SDS011;46342;49.046;11.920;2024-01-07T14:30:32;14.00;;;7.15;;
60494;SDS011;46342;49.046;11.920;2024-01-07T14:32:58;13.95;;;7.35;;
60494;SDS011;46342;49.046;11.920;2024-01-07T14:35:24;17.17;;;8.43;;